Sagamore Hills, Ohio
Current Conditions -  °F | °C
As of 10:53 AM on Thursday 18 Dec 2014 (Local Time) from KBKL Reporting Station
Overcast Overcast  
Wind Chill: 22°   Ceiling: 2200
Heat Index: 31°   Visibility: 10mi
Dew Point: 24°   Wind: 12mph
Humidity: 76%   Direction: 230°SW
Pressure: 30.22"   Gusts: NA
Location:  41.3128°N, 81.5476°W
Report Text: KBKL 181553Z 23010KT 10SM OVC022 M01/M04 A3022 RMK AO2 SLP238 T10061044
Loading
Personal Weather Stations






























Interactive Weather Map New forecast layout! Learn more

10-Day Weather Forecast

Advertisements
Track Severe Weather on mobile